Odysseas L — D5ES4 — position and weather

sailwx.info

Track history (hours):
 
Tides and Currents Weather Stations Pressure Air Temp Water Temp Dewpoint Dewpoint Depression Visibility Wind Speed Wind Dir Waves Ship Positions

Odysseas L

Last reported at 2017-Dec-11 15:39 UTC. Time now 2017-Dec-16 16:40 UTC.
Position N 17°13' W 060°45'.

Length 229 m; draft 13.6 m.

Type: Ship. MMSI: 636016151.

Date/timePositionNaut miles runAvg speedWind from/ knotsBaromVisibWave heightAir tempDewpointWater temp
2017-Dec-11 15:39N 17°13' W 060°45'211.1
2017-Dec-11 15:28N 17°14' W 060°47'511.0
2017-Dec-11 15:00N 17°17' W 060°51'611.1
2017-Dec-11 14:28N 17°21' W 060°57'511.1
2017-Dec-11 14:00N 17°24' W 061°01'611.1
2017-Dec-11 13:28N 17°28' W 061°06'511.1
2017-Dec-11 13:00N 17°31' W 061°10'611.0
2017-Dec-11 12:30N 17°34' W 061°15'510.9
2017-Dec-11 12:00N 17°37' W 061°19'611.1
2017-Dec-11 11:30N 17°41' W 061°24'510.9
2017-Dec-11 11:00N 17°44' W 061°29'510.6
2017-Dec-11 10:30N 17°47' W 061°33'510.7
2017-Dec-11 10:00N 17°50' W 061°38'510.7
2017-Dec-11 09:30N 17°53' W 061°42'610.6
2017-Dec-11 08:54N 17°56' W 061°48'410.9
2017-Dec-11 08:30N 17°58' W 061°52'611.0
2017-Dec-11 08:00N 17°60' W 061°58'611.1
2017-Dec-11 07:30N 18°02' W 062°03'611.3
2017-Dec-11 07:00N 18°05' W 062°08'611.2
2017-Dec-11 06:30N 18°07' W 062°14'610.8
2017-Dec-11 05:58N 18°10' W 062°19'910.7
2017-Dec-11 05:07N 18°14' W 062°28'110.7
2017-Dec-11 05:00N 18°14' W 062°29'  
2017-Dec-04 06:53N 29°33' W 089°46'1011.6
2017-Dec-04 05:59N 29°38' W 089°56'1010.8
2017-Dec-04 05:04N 29°47' W 090°01'212.5
2017-Dec-04 04:52N 29°50' W 089°60'410.4
2017-Dec-04 04:30N 29°53' W 089°58'9 4.9
2017-Dec-04 02:42N 29°55' W 090°08'7 7.7
2017-Dec-04 01:48N 29°58' W 090°14'6 9.9
2017-Dec-04 01:14N 29°56' W 090°21'311.0
2017-Dec-04 00:58N 29°57' W 090°24'5 9.6
2017-Dec-04 00:28N 30°00' W 090°28'11 0.3
2017-Dec-02 16:16N 30°03' W 090°41'0 0.0
2017-Dec-02 10:17N 30°03' W 090°41'  
Track history (hours):
 
Tides and Currents Weather Stations Pressure Air Temp Water Temp Dewpoint Dewpoint Depression Visibility Wind Speed Wind Dir Waves Ship Positions

Odysseas L

Last reported at 2017-Dec-11 15:39 UTC. Time now 2017-Dec-16 16:40 UTC.
Position N 17°13' W 060°45'.

Length 229 m; draft 13.6 m.

Type: Ship. MMSI: 636016151.

Date/timePositionNaut miles runAvg speedWind from/ knotsBaromVisibWave heightAir tempDewpointWater temp
2017-Dec-11 15:39N 17°13' W 060°45'211.1
2017-Dec-11 15:28N 17°14' W 060°47'511.0
2017-Dec-11 15:00N 17°17' W 060°51'611.1
2017-Dec-11 14:28N 17°21' W 060°57'511.1
2017-Dec-11 14:00N 17°24' W 061°01'611.1
2017-Dec-11 13:28N 17°28' W 061°06'511.1
2017-Dec-11 13:00N 17°31' W 061°10'611.0
2017-Dec-11 12:30N 17°34' W 061°15'510.9
2017-Dec-11 12:00N 17°37' W 061°19'611.1
2017-Dec-11 11:30N 17°41' W 061°24'510.9
2017-Dec-11 11:00N 17°44' W 061°29'510.6
2017-Dec-11 10:30N 17°47' W 061°33'510.7
2017-Dec-11 10:00N 17°50' W 061°38'510.7
2017-Dec-11 09:30N 17°53' W 061°42'610.6
2017-Dec-11 08:54N 17°56' W 061°48'410.9
2017-Dec-11 08:30N 17°58' W 061°52'611.0
2017-Dec-11 08:00N 17°60' W 061°58'611.1
2017-Dec-11 07:30N 18°02' W 062°03'611.3
2017-Dec-11 07:00N 18°05' W 062°08'611.2
2017-Dec-11 06:30N 18°07' W 062°14'610.8
2017-Dec-11 05:58N 18°10' W 062°19'910.7
2017-Dec-11 05:07N 18°14' W 062°28'110.7
2017-Dec-11 05:00N 18°14' W 062°29'  
2017-Dec-04 06:53N 29°33' W 089°46'1011.6
2017-Dec-04 05:59N 29°38' W 089°56'1010.8
2017-Dec-04 05:04N 29°47' W 090°01'212.5
2017-Dec-04 04:52N 29°50' W 089°60'410.4
2017-Dec-04 04:30N 29°53' W 089°58'9 4.9
2017-Dec-04 02:42N 29°55' W 090°08'7 7.7
2017-Dec-04 01:48N 29°58' W 090°14'6 9.9
2017-Dec-04 01:14N 29°56' W 090°21'311.0
2017-Dec-04 00:58N 29°57' W 090°24'5 9.6
2017-Dec-04 00:28N 30°00' W 090°28'11 0.3
2017-Dec-02 16:16N 30°03' W 090°41'0 0.0
2017-Dec-02 10:17N 30°03' W 090°41'  

Dump ship's entire track history